createdAt,value
2018-10-06T00:01:24.631Z,79.50
2018-10-06T00:03:52.924Z,80.70
2018-10-06T00:09:02.016Z,81.60
2018-10-06T00:11:30.493Z,81.70
2018-10-06T00:13:58.913Z,79.50
2018-10-06T00:16:27.276Z,78.80
2018-10-06T00:18:55.636Z,79.00
2018-10-06T00:21:24.091Z,78.90
2018-10-06T00:23:52.481Z,78.70
2018-10-06T00:26:20.851Z,78.40
2018-10-06T00:28:49.206Z,80.30
2018-10-06T00:31:17.568Z,81.50
2018-10-06T00:33:45.889Z,81.90
2018-10-06T00:36:14.244Z,82.10
2018-10-06T00:38:42.612Z,82.00
2018-10-06T00:41:11.026Z,80.40
2018-10-06T00:43:39.410Z,78.70
2018-10-06T00:46:07.723Z,78.30
2018-10-06T00:48:36.098Z,78.70
2018-10-06T00:51:04.467Z,79.50
2018-10-06T00:53:32.812Z,79.20
2018-10-06T00:56:01.140Z,82.60
2018-10-06T00:58:29.479Z,79.20
2018-10-06T01:00:57.882Z,78.70
2018-10-06T01:03:26.249Z,79.00
2018-10-06T01:05:54.567Z,79.90
2018-10-06T01:08:22.925Z,79.90
2018-10-06T01:10:51.302Z,79.80
2018-10-06T01:13:19.680Z,80.10
2018-10-06T01:15:47.997Z,79.60
2018-10-06T01:18:16.370Z,80.10
2018-10-06T01:20:44.858Z,80.80
2018-10-06T01:23:13.203Z,79.90
2018-10-06T01:25:41.521Z,79.60
2018-10-06T01:28:09.860Z,79.50
2018-10-06T01:30:38.216Z,79.00
2018-10-06T01:33:06.604Z,79.40
2018-10-06T01:35:34.904Z,79.80
2018-10-06T01:38:03.343Z,79.60
2018-10-06T01:40:31.764Z,78.70
2018-10-06T01:43:00.116Z,77.80
2018-10-06T01:45:28.347Z,78.10
2018-10-06T01:47:56.700Z,79.20
2018-10-06T01:50:25.047Z,80.00
2018-10-06T01:52:53.388Z,80.60
2018-10-06T01:55:21.785Z,85.70
2018-10-06T01:57:50.171Z,91.20
2018-10-06T02:00:18.500Z,82.80
2018-10-06T02:02:46.862Z,80.00
2018-10-06T02:05:15.224Z,80.20
2018-10-06T02:10:11.587Z,80.00
2018-10-06T02:12:39.974Z,79.90
2018-10-06T02:15:08.433Z,79.60
2018-10-06T02:17:36.811Z,80.00
2018-10-06T02:20:05.135Z,80.10
2018-10-06T02:22:33.539Z,81.10
2018-10-06T02:25:01.872Z,81.80
2018-10-06T02:27:30.247Z,82.10
2018-10-06T02:29:58.682Z,82.60
2018-10-06T02:32:27.070Z,82.30
2018-10-06T02:34:55.405Z,81.80
2018-10-06T02:37:23.828Z,81.20
2018-10-06T02:39:52.151Z,82.30
2018-10-06T02:42:20.503Z,82.30
2018-10-06T02:44:48.916Z,81.60
2018-10-06T02:47:17.242Z,82.00
2018-10-06T02:49:45.629Z,82.70
2018-10-06T02:52:13.987Z,82.10
2018-10-06T02:54:42.347Z,82.50
2018-10-06T02:57:10.732Z,82.90
2018-10-06T02:59:39.092Z,83.70
2018-10-06T03:02:07.651Z,94.80
2018-10-06T03:04:36.077Z,84.40
2018-10-06T03:07:04.422Z,85.00
2018-10-06T03:09:32.802Z,85.50
2018-10-06T03:12:01.204Z,86.30
2018-10-06T03:14:29.544Z,86.30
2018-10-06T03:16:57.869Z,86.40
2018-10-06T03:19:26.211Z,85.70
2018-10-06T03:21:54.601Z,85.10
2018-10-06T03:24:22.928Z,84.70
2018-10-06T03:26:51.484Z,84.60
2018-10-06T03:29:19.912Z,84.30
2018-10-06T03:31:48.251Z,84.30
2018-10-06T03:34:16.645Z,83.70
2018-10-06T03:36:45.032Z,83.60
2018-10-06T03:39:13.410Z,83.40
2018-10-06T03:41:41.739Z,83.10
2018-10-06T03:44:10.076Z,83.00
2018-10-06T03:46:38.412Z,83.10
2018-10-06T03:49:06.818Z,83.60
2018-10-06T03:51:35.263Z,83.70
2018-10-06T03:54:03.743Z,83.90
2018-10-06T03:56:32.136Z,85.10
2018-10-06T03:59:00.489Z,85.50
2018-10-06T04:01:28.878Z,85.80
2018-10-06T04:03:57.272Z,85.40
2018-10-06T04:06:25.645Z,91.30
2018-10-06T04:08:54.068Z,85.30
2018-10-06T04:11:22.409Z,87.40
2018-10-06T04:13:50.742Z,86.20
2018-10-06T04:16:19.092Z,87.00
2018-10-06T04:18:47.454Z,87.10
2018-10-06T04:21:15.774Z,86.50
2018-10-06T04:23:44.169Z,86.50
2018-10-06T04:26:12.583Z,86.90
2018-10-06T04:28:40.949Z,86.90
2018-10-06T04:31:09.271Z,86.20
2018-10-06T04:33:37.632Z,86.30
2018-10-06T04:36:06.099Z,85.50
2018-10-06T04:38:34.454Z,85.50
2018-10-06T04:41:02.826Z,85.70
2018-10-06T04:43:31.239Z,85.40
2018-10-06T04:45:59.639Z,85.90
2018-10-06T04:48:28.003Z,86.20
2018-10-06T04:50:56.346Z,85.60
2018-10-06T04:53:24.677Z,86.10
2018-10-06T04:55:53.038Z,86.80
2018-10-06T04:58:21.436Z,86.80
2018-10-06T05:00:49.816Z,85.00
2018-10-06T05:03:18.191Z,85.50
2018-10-06T05:05:46.539Z,87.40
2018-10-06T05:08:14.958Z,86.40
2018-10-06T05:13:11.357Z,86.90
2018-10-06T05:15:39.695Z,87.70
2018-10-06T05:18:08.039Z,87.80
2018-10-06T05:20:36.489Z,87.30
2018-10-06T05:23:04.894Z,87.20
2018-10-06T05:25:33.291Z,87.60
2018-10-06T05:28:01.584Z,87.80
2018-10-06T05:30:29.935Z,88.10
2018-10-06T05:32:58.328Z,87.40
2018-10-06T05:35:26.706Z,87.50
2018-10-06T05:37:55.136Z,87.50
2018-10-06T05:40:23.727Z,86.70
2018-10-06T05:42:52.123Z,86.20
2018-10-06T05:45:20.604Z,85.80
2018-10-06T05:47:48.918Z,85.10
2018-10-06T05:50:17.247Z,84.80
2018-10-06T05:52:45.635Z,84.40
2018-10-06T05:55:14.008Z,84.70
2018-10-06T05:57:42.368Z,85.10
2018-10-06T06:00:10.684Z,85.00
2018-10-06T06:02:38.998Z,90.50
2018-10-06T06:05:12.536Z,86.20
2018-10-06T06:07:41.205Z,86.00
2018-10-06T06:10:10.025Z,86.10
2018-10-06T06:12:38.504Z,86.40
2018-10-06T06:15:07.061Z,88.20
2018-10-06T06:20:03.485Z,87.10
2018-10-06T06:22:31.808Z,88.40
2018-10-06T06:25:00.240Z,89.30
2018-10-06T06:27:28.783Z,89.60
2018-10-06T06:29:57.175Z,89.90
2018-10-06T06:32:25.612Z,89.90
2018-10-06T06:34:53.957Z,90.40
2018-10-06T06:37:22.378Z,90.20
2018-10-06T06:39:50.688Z,90.20
2018-10-06T06:42:19.040Z,90.20
2018-10-06T06:44:47.485Z,90.40
2018-10-06T06:47:15.888Z,90.40
2018-10-06T06:49:44.258Z,90.30
2018-10-06T06:52:12.600Z,90.20
2018-10-06T06:54:40.957Z,89.70
2018-10-06T06:57:09.251Z,88.70
2018-10-06T06:59:37.692Z,87.20
2018-10-06T07:02:06.022Z,85.10
2018-10-06T07:04:34.366Z,83.70
2018-10-06T07:07:02.713Z,83.60
2018-10-06T07:09:31.130Z,81.50
2018-10-06T07:11:59.499Z,76.90
2018-10-06T07:14:27.841Z,73.00
2018-10-06T07:16:56.212Z,71.80
2018-10-06T07:21:52.625Z,71.20
2018-10-06T07:24:20.973Z,71.80
2018-10-06T07:26:49.415Z,69.00
2018-10-06T07:29:17.732Z,68.90
2018-10-06T07:31:46.101Z,67.10
2018-10-06T07:34:14.518Z,65.30
2018-10-06T07:36:42.952Z,63.80
2018-10-06T07:39:11.307Z,65.80
2018-10-06T07:41:39.715Z,64.40
2018-10-06T07:44:08.081Z,64.80
2018-10-06T07:46:36.521Z,64.50
2018-10-06T07:49:04.942Z,66.30
2018-10-06T07:51:33.300Z,63.20
2018-10-06T07:54:01.663Z,60.00
2018-10-06T07:56:30.042Z,65.70
2018-10-06T07:58:58.483Z,64.60
2018-10-06T08:01:26.764Z,66.00
2018-10-06T08:03:55.532Z,58.50
2018-10-06T08:06:24.441Z,58.20
2018-10-06T08:08:52.899Z,58.10
2018-10-06T08:11:21.180Z,59.20
2018-10-06T08:13:49.390Z,56.90
2018-10-06T08:18:45.769Z,69.00
2018-10-06T08:23:42.245Z,62.60
2018-10-06T08:26:10.420Z,65.40
2018-10-06T08:28:38.711Z,65.20
2018-10-06T08:31:07.259Z,65.90
2018-10-06T08:33:35.451Z,63.50
2018-10-06T08:36:03.637Z,63.30
2018-10-06T08:38:32.050Z,63.50
2018-10-06T08:41:00.617Z,63.50
2018-10-06T08:43:29.111Z,65.30
2018-10-06T08:45:57.484Z,62.30
2018-10-06T08:48:25.821Z,59.90
2018-10-06T08:50:54.044Z,59.50
2018-10-06T08:53:22.277Z,59.40
2018-10-06T08:55:50.504Z,59.40
2018-10-06T08:58:18.760Z,58.70
2018-10-06T09:00:46.955Z,56.90
2018-10-06T09:03:15.155Z,56.30
2018-10-06T09:05:43.348Z,54.50
2018-10-06T09:08:11.512Z,54.10
2018-10-06T09:10:39.936Z,52.80
2018-10-06T09:13:08.302Z,55.90
2018-10-06T09:15:36.646Z,49.80
2018-10-06T09:18:05.121Z,51.50
2018-10-06T09:20:33.482Z,50.50
2018-10-06T09:25:29.875Z,49.20
2018-10-06T09:27:58.216Z,49.80
2018-10-06T09:30:26.623Z,50.80
2018-10-06T09:32:55.011Z,48.80
2018-10-06T09:35:23.297Z,52.50
2018-10-06T09:37:51.577Z,48.40
2018-10-06T09:40:19.756Z,46.40
2018-10-06T09:42:48.043Z,49.30
2018-10-06T09:45:16.318Z,49.80
2018-10-06T09:47:47.556Z,49.20
2018-10-06T09:50:15.931Z,48.50
2018-10-06T09:52:44.299Z,45.20
2018-10-06T09:55:12.703Z,43.40
2018-10-06T09:57:41.077Z,43.70
2018-10-06T10:00:09.356Z,42.40
2018-10-06T10:02:43.158Z,41.70
2018-10-06T10:05:16.986Z,41.90
2018-10-06T10:07:45.269Z,43.10
2018-10-06T10:10:13.628Z,43.70
2018-10-06T10:12:42.054Z,40.80
2018-10-06T10:15:10.424Z,42.70
2018-10-06T10:17:38.870Z,41.40
2018-10-06T10:20:07.140Z,43.00
2018-10-06T10:22:35.590Z,43.70
2018-10-06T10:27:38.642Z,45.20
2018-10-06T10:30:07.431Z,44.70
2018-10-06T10:32:35.832Z,45.10
2018-10-06T10:35:04.220Z,45.20
2018-10-06T10:37:32.624Z,44.50
2018-10-06T10:40:00.880Z,45.60
2018-10-06T10:42:29.420Z,47.20
2018-10-06T10:44:57.776Z,45.10
2018-10-06T10:47:26.166Z,45.10
2018-10-06T10:49:54.693Z,44.60
2018-10-06T10:52:23.212Z,44.20
2018-10-06T10:54:51.591Z,43.50
2018-10-06T10:57:19.983Z,43.00
2018-10-06T10:59:48.482Z,41.20
2018-10-06T11:02:16.772Z,41.70
2018-10-06T11:04:45.268Z,42.50
2018-10-06T11:07:13.674Z,41.80
2018-10-06T11:09:42.057Z,38.60
2018-10-06T11:12:10.399Z,39.50
2018-10-06T11:14:38.745Z,41.40
2018-10-06T11:17:10.160Z,41.60
2018-10-06T11:19:38.497Z,42.20
2018-10-06T11:22:06.760Z,39.00
2018-10-06T11:24:35.098Z,39.20
2018-10-06T11:27:03.520Z,40.10
2018-10-06T11:29:31.878Z,39.40
2018-10-06T11:32:00.283Z,39.50
2018-10-06T11:34:28.639Z,39.90
2018-10-06T11:36:56.997Z,40.10
2018-10-06T11:39:25.333Z,41.10
2018-10-06T11:41:53.734Z,41.20
2018-10-06T11:44:22.093Z,43.10
2018-10-06T11:46:50.460Z,40.40
2018-10-06T11:49:18.827Z,40.30
2018-10-06T11:51:47.191Z,41.50
2018-10-06T11:54:15.482Z,42.20
2018-10-06T11:56:43.854Z,42.80
2018-10-06T11:59:12.198Z,40.90
2018-10-06T12:01:40.557Z,40.10
2018-10-06T12:04:08.982Z,39.60
2018-10-06T12:06:37.392Z,40.10
2018-10-06T12:09:07.139Z,40.80
2018-10-06T12:11:35.586Z,39.80
2018-10-06T12:14:04.011Z,39.60
2018-10-06T12:16:32.443Z,40.00
2018-10-06T12:19:00.805Z,39.40
2018-10-06T12:21:29.144Z,39.70
2018-10-06T12:23:57.483Z,39.60
2018-10-06T12:26:25.865Z,40.80
2018-10-06T12:28:54.294Z,40.20
2018-10-06T12:31:22.645Z,40.60
2018-10-06T12:33:51.002Z,40.60
2018-10-06T12:36:19.361Z,42.90
2018-10-06T12:38:47.717Z,41.50
2018-10-06T12:41:16.025Z,42.00
2018-10-06T12:43:44.392Z,41.90
2018-10-06T12:46:12.968Z,43.30
2018-10-06T12:48:41.339Z,46.70
2018-10-06T12:51:09.789Z,41.70
2018-10-06T12:53:38.200Z,42.10
2018-10-06T13:01:02.829Z,43.00
2018-10-06T13:03:31.177Z,43.00
2018-10-06T13:05:59.614Z,44.00
2018-10-06T13:08:28.010Z,42.50
2018-10-06T13:10:56.350Z,43.30
2018-10-06T13:13:24.752Z,44.50
2018-10-06T13:15:53.096Z,43.50
2018-10-06T13:18:21.456Z,43.20
2018-10-06T13:20:49.803Z,44.10
2018-10-06T13:23:18.109Z,43.80
2018-10-06T13:25:46.497Z,43.40
2018-10-06T13:28:14.863Z,42.30
2018-10-06T13:30:43.289Z,42.50
2018-10-06T13:33:11.649Z,43.80
2018-10-06T13:35:40.003Z,44.00
2018-10-06T13:38:08.404Z,43.80
2018-10-06T13:40:36.733Z,43.10
2018-10-06T13:43:05.104Z,42.00
2018-10-06T13:45:33.520Z,42.60
2018-10-06T13:52:58.112Z,42.90
2018-10-06T13:55:26.516Z,43.80
2018-10-06T13:57:54.866Z,42.70
2018-10-06T14:00:23.247Z,42.60
2018-10-06T14:02:51.704Z,42.20
2018-10-06T14:05:20.080Z,43.10
2018-10-06T14:07:48.461Z,42.80
2018-10-06T14:10:16.825Z,42.90
2018-10-06T14:12:45.205Z,42.90
2018-10-06T14:15:13.407Z,42.00
2018-10-06T14:17:41.815Z,41.90
2018-10-06T14:20:10.232Z,41.50
2018-10-06T14:22:38.650Z,42.00
2018-10-06T14:25:07.116Z,42.00
2018-10-06T14:27:35.440Z,41.70
2018-10-06T14:30:03.787Z,41.30
2018-10-06T14:32:32.151Z,40.80
2018-10-06T14:35:00.368Z,40.90
2018-10-06T14:37:28.772Z,40.20
2018-10-06T14:39:57.144Z,41.40
2018-10-06T14:42:25.517Z,41.10
2018-10-06T14:44:53.914Z,42.00
2018-10-06T14:54:46.562Z,41.20
2018-10-06T14:57:14.997Z,42.80
2018-10-06T14:59:43.425Z,42.80
2018-10-06T15:02:11.755Z,42.20
2018-10-06T15:04:40.074Z,42.30
2018-10-06T15:07:08.302Z,42.20
2018-10-06T15:09:36.668Z,41.30
2018-10-06T15:12:04.973Z,41.20
2018-10-06T15:14:33.395Z,41.00
2018-10-06T15:17:01.813Z,41.60
2018-10-06T15:19:30.128Z,41.30
2018-10-06T15:21:58.463Z,41.50
2018-10-06T15:24:26.833Z,41.80
2018-10-06T15:26:55.217Z,41.50
2018-10-06T15:29:23.563Z,41.90
2018-10-06T15:31:51.917Z,42.60
2018-10-06T15:34:20.277Z,42.70
2018-10-06T15:36:48.705Z,43.10
2018-10-06T15:39:16.969Z,43.40
2018-10-06T15:41:45.298Z,43.50
2018-10-06T15:44:13.666Z,43.80
2018-10-06T15:46:42.017Z,44.30
2018-10-06T15:54:06.682Z,45.70
2018-10-06T15:56:35.049Z,46.40
2018-10-06T15:59:03.381Z,46.60
2018-10-06T16:01:31.731Z,48.60
2018-10-06T16:04:00.121Z,50.20
2018-10-06T16:06:28.441Z,50.40
2018-10-06T16:08:56.862Z,51.70
2018-10-06T16:11:25.284Z,52.40
2018-10-06T16:13:53.709Z,53.10
2018-10-06T16:16:22.049Z,53.30
2018-10-06T16:18:50.419Z,54.20
2018-10-06T16:21:18.852Z,54.50
2018-10-06T16:23:47.240Z,55.10
2018-10-06T16:26:15.580Z,55.50
2018-10-06T16:28:43.989Z,56.70
2018-10-06T16:31:12.372Z,57.20
2018-10-06T16:33:40.766Z,58.20
2018-10-06T16:36:09.080Z,58.80
2018-10-06T16:38:37.477Z,59.60
2018-10-06T16:41:05.884Z,64.20
2018-10-06T16:43:34.248Z,67.00
2018-10-06T16:46:02.645Z,67.10
2018-10-06T16:48:31.074Z,62.00
2018-10-06T16:50:59.411Z,60.70
2018-10-06T16:55:55.852Z,60.90
2018-10-06T16:58:24.220Z,62.10
2018-10-06T17:00:52.567Z,63.40
2018-10-06T17:03:20.977Z,63.50
2018-10-06T17:05:49.391Z,64.60
2018-10-06T17:08:17.660Z,64.50
2018-10-06T17:10:46.032Z,65.40
2018-10-06T17:13:14.396Z,66.20
2018-10-06T17:15:42.763Z,66.50
2018-10-06T17:18:11.153Z,66.80
2018-10-06T17:20:39.498Z,66.30
2018-10-06T17:23:07.858Z,66.50
2018-10-06T17:25:36.251Z,67.30
2018-10-06T17:28:04.727Z,67.60
2018-10-06T17:30:33.101Z,68.10
2018-10-06T17:33:01.451Z,68.10
2018-10-06T17:35:29.825Z,68.30
2018-10-06T17:37:58.198Z,68.90
2018-10-06T17:40:26.628Z,69.20
2018-10-06T17:42:55.006Z,69.10
2018-10-06T17:45:23.419Z,69.30
2018-10-06T17:47:51.931Z,69.10
2018-10-06T17:50:20.436Z,68.80
2018-10-06T17:52:48.692Z,69.60
2018-10-06T17:55:17.078Z,69.70
2018-10-06T17:57:45.430Z,70.30
2018-10-06T18:00:13.759Z,70.80
2018-10-06T18:02:42.090Z,70.70
2018-10-06T18:05:10.478Z,70.70
2018-10-06T18:07:38.837Z,70.80
2018-10-06T18:10:07.192Z,70.80
2018-10-06T18:12:35.573Z,71.40
2018-10-06T18:15:03.882Z,71.80
2018-10-06T18:17:32.268Z,71.70
2018-10-06T18:20:00.686Z,71.70
2018-10-06T18:22:29.061Z,71.90
2018-10-06T18:24:57.539Z,72.30
2018-10-06T18:27:25.882Z,72.40
2018-10-06T18:29:54.203Z,72.20
2018-10-06T18:32:22.546Z,73.10
2018-10-06T18:34:50.923Z,73.10
2018-10-06T18:37:19.389Z,73.60
2018-10-06T18:39:47.729Z,74.00
2018-10-06T18:42:16.071Z,74.20
2018-10-06T18:44:44.420Z,74.70
2018-10-06T18:47:12.783Z,74.50
2018-10-06T18:49:41.252Z,74.00
2018-10-06T18:52:09.659Z,74.10
2018-10-06T18:57:06.254Z,74.40
2018-10-06T18:59:34.619Z,75.00
2018-10-06T19:02:02.967Z,75.40
2018-10-06T19:04:31.300Z,76.00
2018-10-06T19:06:59.661Z,76.40
2018-10-06T19:09:28.032Z,76.90
2018-10-06T19:11:56.374Z,77.60
2018-10-06T19:14:24.763Z,78.00
2018-10-06T19:16:53.144Z,78.40
2018-10-06T19:19:21.545Z,78.40
2018-10-06T19:21:49.967Z,78.30
2018-10-06T19:24:18.293Z,78.20
2018-10-06T19:26:46.725Z,78.30
2018-10-06T19:29:15.052Z,78.30
2018-10-06T19:31:43.435Z,78.60
2018-10-06T19:34:11.838Z,78.70
2018-10-06T19:36:40.262Z,77.90
2018-10-06T19:39:09.107Z,77.90
2018-10-06T19:41:37.692Z,77.70
2018-10-06T19:44:06.020Z,77.50
2018-10-06T19:46:34.418Z,76.90
2018-10-06T19:49:02.788Z,78.00
2018-10-06T19:51:31.300Z,77.20
2018-10-06T19:53:59.652Z,78.00
2018-10-06T19:58:56.136Z,77.00
2018-10-06T20:01:24.474Z,77.70
2018-10-06T20:03:52.892Z,77.60
2018-10-06T20:06:21.192Z,77.90
2018-10-06T20:08:49.520Z,78.00
2018-10-06T20:11:17.865Z,78.40
2018-10-06T20:13:46.196Z,78.60
2018-10-06T20:16:14.401Z,78.90
2018-10-06T20:18:42.584Z,79.00
2018-10-06T20:21:10.820Z,79.20
2018-10-06T20:23:39.008Z,79.20
2018-10-06T20:26:07.719Z,79.20
2018-10-06T20:28:35.891Z,79.50
2018-10-06T20:31:04.136Z,79.80
2018-10-06T20:33:32.315Z,79.20
2018-10-06T20:36:00.500Z,79.90
2018-10-06T20:38:28.716Z,79.70
2018-10-06T20:40:56.912Z,78.30
2018-10-06T20:43:25.094Z,78.50
2018-10-06T20:45:53.276Z,79.00
2018-10-06T20:48:21.473Z,78.80
2018-10-06T20:50:49.667Z,79.90
2018-10-06T20:53:17.902Z,78.90
2018-10-06T20:55:46.032Z,79.20
2018-10-06T21:03:10.129Z,79.80
2018-10-06T21:05:38.351Z,80.00
2018-10-06T21:08:06.632Z,81.30
2018-10-06T21:10:34.902Z,80.60
2018-10-06T21:13:03.103Z,80.30
2018-10-06T21:15:31.299Z,80.00
2018-10-06T21:17:59.500Z,80.30
2018-10-06T21:20:27.701Z,79.60
2018-10-06T21:22:55.977Z,79.50
2018-10-06T21:25:24.163Z,79.10
2018-10-06T21:27:52.356Z,79.40
2018-10-06T21:30:20.568Z,79.60
2018-10-06T21:32:48.772Z,79.80
2018-10-06T21:35:16.959Z,80.10
2018-10-06T21:37:45.218Z,80.70
2018-10-06T21:40:13.399Z,80.80
2018-10-06T21:42:41.610Z,80.90
2018-10-06T21:45:09.812Z,80.40
2018-10-06T21:47:38.011Z,79.90
2018-10-06T21:50:06.311Z,81.60
2018-10-06T21:52:34.571Z,80.20
2018-10-06T21:55:02.801Z,80.60
2018-10-06T21:57:31.030Z,81.10
2018-10-06T21:59:59.212Z,82.50
2018-10-06T22:02:27.411Z,81.80
2018-10-06T22:04:55.629Z,81.40
2018-10-06T22:07:23.823Z,81.80
2018-10-06T22:09:52.024Z,82.30
2018-10-06T22:12:20.277Z,81.60
2018-10-06T22:14:48.545Z,82.00
2018-10-06T22:17:16.811Z,81.90
2018-10-06T22:19:45.100Z,81.90
2018-10-06T22:22:13.309Z,82.40
2018-10-06T22:24:41.494Z,82.40
2018-10-06T22:27:09.680Z,82.80
2018-10-06T22:29:37.880Z,83.00
2018-10-06T22:32:06.063Z,83.10
2018-10-06T22:34:34.357Z,82.60
2018-10-06T22:37:02.616Z,82.90
2018-10-06T22:39:30.948Z,83.10
2018-10-06T22:41:59.166Z,82.50
2018-10-06T22:44:27.352Z,82.40
2018-10-06T22:46:55.552Z,82.40
2018-10-06T22:49:23.792Z,82.30
2018-10-06T22:51:52.062Z,81.90
2018-10-06T22:54:20.268Z,82.30
2018-10-06T22:56:48.470Z,84.70
2018-10-06T22:59:16.668Z,82.60
2018-10-06T23:04:13.144Z,86.20
2018-10-06T23:06:41.345Z,84.00
2018-10-06T23:09:10.675Z,85.00
2018-10-06T23:11:38.929Z,85.40
2018-10-06T23:14:07.440Z,85.70
2018-10-06T23:16:35.661Z,86.70
2018-10-06T23:19:04.096Z,87.40
2018-10-06T23:21:32.285Z,87.60
2018-10-06T23:24:01.002Z,88.10
2018-10-06T23:26:29.180Z,88.40
2018-10-06T23:28:57.523Z,88.20
2018-10-06T23:31:25.732Z,88.40
2018-10-06T23:33:53.929Z,88.50
2018-10-06T23:36:22.122Z,88.50
2018-10-06T23:38:50.314Z,88.20
2018-10-06T23:41:18.504Z,88.40
2018-10-06T23:43:46.791Z,88.70
2018-10-06T23:46:15.052Z,89.40
2018-10-06T23:48:43.237Z,90.20
2018-10-06T23:51:11.531Z,90.40
2018-10-06T23:53:39.743Z,90.40
2018-10-06T23:56:07.920Z,90.00
